sensor_id;sensor_type;location;lat;lon;timestamp;temperature;humidity
20827;DHT22;10574;52.508;13.236;2022-07-15T00:01:08;14.90;99.90
20827;DHT22;10574;52.508;13.236;2022-07-15T00:03:40;14.90;99.90
20827;DHT22;10574;52.508;13.236;2022-07-15T00:06:06;14.80;99.90
20827;DHT22;10574;52.508;13.236;2022-07-15T00:08:33;14.70;99.90
20827;DHT22;10574;52.508;13.236;2022-07-15T00:11:01;14.70;99.90
20827;DHT22;10574;52.508;13.236;2022-07-15T00:13:29;14.60;99.90
20827;DHT22;10574;52.508;13.236;2022-07-15T00:15:57;14.60;99.90
20827;DHT22;10574;52.508;13.236;2022-07-15T00:18:25;14.50;99.90
20827;DHT22;10574;52.508;13.236;2022-07-15T00:20:52;14.40;99.90
20827;DHT22;10574;52.508;13.236;2022-07-15T00:23:20;14.40;99.90
20827;DHT22;10574;52.508;13.236;2022-07-15T00:25:48;14.40;99.90
20827;DHT22;10574;52.508;13.236;2022-07-15T00:28:15;14.50;99.90
20827;DHT22;10574;52.508;13.236;2022-07-15T00:30:43;14.40;99.90
20827;DHT22;10574;52.508;13.236;2022-07-15T00:33:11;14.40;99.90
20827;DHT22;10574;52.508;13.236;2022-07-15T00:35:39;14.40;99.90
20827;DHT22;10574;52.508;13.236;2022-07-15T00:38:08;14.40;99.90
20827;DHT22;10574;52.508;13.236;2022-07-15T00:40:45;14.50;99.90
20827;DHT22;10574;52.508;13.236;2022-07-15T00:43:13;14.40;99.90
20827;DHT22;10574;52.508;13.236;2022-07-15T00:45:43;14.20;99.90
20827;DHT22;10574;52.508;13.236;2022-07-15T00:48:11;14.20;99.90
20827;DHT22;10574;52.508;13.236;2022-07-15T00:50:39;14.20;99.90
20827;DHT22;10574;52.508;13.236;2022-07-15T00:53:19;14.20;99.90
20827;DHT22;10574;52.508;13.236;2022-07-15T00:55:49;14.20;99.90
20827;DHT22;10574;52.508;13.236;2022-07-15T00:58:18;14.10;99.90
20827;DHT22;10574;52.508;13.236;2022-07-15T01:00:48;14.00;99.90
20827;DHT22;10574;52.508;13.236;2022-07-15T01:03:17;14.00;99.90
20827;DHT22;10574;52.508;13.236;2022-07-15T01:05:46;14.10;99.90
20827;DHT22;10574;52.508;13.236;2022-07-15T01:08:16;14.00;99.90
20827;DHT22;10574;52.508;13.236;2022-07-15T01:10:48;14.00;99.90
20827;DHT22;10574;52.508;13.236;2022-07-15T01:13:19;14.00;99.90
20827;DHT22;10574;52.508;13.236;2022-07-15T01:15:48;14.00;99.90
20827;DHT22;10574;52.508;13.236;2022-07-15T01:18:15;13.90;99.90
20827;DHT22;10574;52.508;13.236;2022-07-15T01:20:44;13.90;99.90
20827;DHT22;10574;52.508;13.236;2022-07-15T01:23:15;13.90;99.90
20827;DHT22;10574;52.508;13.236;2022-07-15T01:25:44;13.70;99.90
20827;DHT22;10574;52.508;13.236;2022-07-15T01:28:12;13.70;99.90
20827;DHT22;10574;52.508;13.236;2022-07-15T01:30:40;13.70;99.90
20827;DHT22;10574;52.508;13.236;2022-07-15T01:33:07;13.60;99.90
20827;DHT22;10574;52.508;13.236;2022-07-15T01:35:35;13.50;99.90
20827;DHT22;10574;52.508;13.236;2022-07-15T01:38:03;13.40;99.90
20827;DHT22;10574;52.508;13.236;2022-07-15T01:40:31;13.40;99.90
20827;DHT22;10574;52.508;13.236;2022-07-15T01:42:58;13.40;99.90
20827;DHT22;10574;52.508;13.236;2022-07-15T01:45:27;13.40;99.90
20827;DHT22;10574;52.508;13.236;2022-07-15T01:47:55;13.40;99.90
20827;DHT22;10574;52.508;13.236;2022-07-15T01:50:23;13.30;99.90
20827;DHT22;10574;52.508;13.236;2022-07-15T01:52:50;13.30;99.90
20827;DHT22;10574;52.508;13.236;2022-07-15T01:55:18;13.30;99.90
20827;DHT22;10574;52.508;13.236;2022-07-15T01:57:46;13.40;99.90
20827;DHT22;10574;52.508;13.236;2022-07-15T02:00:14;13.40;99.90
20827;DHT22;10574;52.508;13.236;2022-07-15T02:02:44;13.40;99.90
20827;DHT22;10574;52.508;13.236;2022-07-15T02:05:11;13.40;99.90
20827;DHT22;10574;52.508;13.236;2022-07-15T02:07:39;13.40;99.90
20827;DHT22;10574;52.508;13.236;2022-07-15T02:10:07;13.40;99.90
20827;DHT22;10574;52.508;13.236;2022-07-15T02:12:35;13.40;99.90
20827;DHT22;10574;52.508;13.236;2022-07-15T02:15:03;13.30;99.90
20827;DHT22;10574;52.508;13.236;2022-07-15T02:17:31;13.30;99.90
20827;DHT22;10574;52.508;13.236;2022-07-15T02:19:58;13.30;99.90
20827;DHT22;10574;52.508;13.236;2022-07-15T02:22:26;13.30;99.90
20827;DHT22;10574;52.508;13.236;2022-07-15T02:24:54;13.30;99.90
20827;DHT22;10574;52.508;13.236;2022-07-15T02:27:22;13.20;99.90
20827;DHT22;10574;52.508;13.236;2022-07-15T02:29:49;13.10;99.90
20827;DHT22;10574;52.508;13.236;2022-07-15T02:32:17;13.10;99.90
20827;DHT22;10574;52.508;13.236;2022-07-15T02:34:44;13.10;99.90
20827;DHT22;10574;52.508;13.236;2022-07-15T02:37:13;13.10;99.90
20827;DHT22;10574;52.508;13.236;2022-07-15T02:39:40;13.00;99.90
20827;DHT22;10574;52.508;13.236;2022-07-15T02:42:08;13.00;99.90
20827;DHT22;10574;52.508;13.236;2022-07-15T02:44:35;12.90;99.90
20827;DHT22;10574;52.508;13.236;2022-07-15T02:47:03;12.90;99.90
20827;DHT22;10574;52.508;13.236;2022-07-15T02:49:31;12.90;99.90
20827;DHT22;10574;52.508;13.236;2022-07-15T02:52:00;12.80;99.90
20827;DHT22;10574;52.508;13.236;2022-07-15T02:54:28;12.80;99.90
20827;DHT22;10574;52.508;13.236;2022-07-15T02:56:56;12.90;99.90
20827;DHT22;10574;52.508;13.236;2022-07-15T02:59:23;12.70;99.90
20827;DHT22;10574;52.508;13.236;2022-07-15T03:01:51;12.70;99.90
20827;DHT22;10574;52.508;13.236;2022-07-15T03:04:19;12.70;99.90
20827;DHT22;10574;52.508;13.236;2022-07-15T03:06:47;12.60;99.90
20827;DHT22;10574;52.508;13.236;2022-07-15T03:09:14;12.50;99.90
20827;DHT22;10574;52.508;13.236;2022-07-15T03:11:44;12.50;99.90
20827;DHT22;10574;52.508;13.236;2022-07-15T03:14:12;12.50;99.90
20827;DHT22;10574;52.508;13.236;2022-07-15T03:16:40;12.40;99.90
20827;DHT22;10574;52.508;13.236;2022-07-15T03:19:08;12.40;99.90
20827;DHT22;10574;52.508;13.236;2022-07-15T03:21:36;12.50;99.90
20827;DHT22;10574;52.508;13.236;2022-07-15T03:24:03;12.40;99.90
20827;DHT22;10574;52.508;13.236;2022-07-15T03:26:33;12.40;99.90
20827;DHT22;10574;52.508;13.236;2022-07-15T03:29:00;12.50;99.90
20827;DHT22;10574;52.508;13.236;2022-07-15T03:31:28;12.50;99.90
20827;DHT22;10574;52.508;13.236;2022-07-15T03:33:56;12.50;99.90
20827;DHT22;10574;52.508;13.236;2022-07-15T03:36:23;12.40;99.90
20827;DHT22;10574;52.508;13.236;2022-07-15T03:38:51;12.40;99.90
20827;DHT22;10574;52.508;13.236;2022-07-15T03:41:21;12.50;99.90
20827;DHT22;10574;52.508;13.236;2022-07-15T03:43:48;12.50;99.90
20827;DHT22;10574;52.508;13.236;2022-07-15T03:46:16;12.50;99.90
20827;DHT22;10574;52.508;13.236;2022-07-15T03:48:44;12.50;99.90
20827;DHT22;10574;52.508;13.236;2022-07-15T03:51:11;12.40;99.90
20827;DHT22;10574;52.508;13.236;2022-07-15T03:53:39;12.40;99.90
20827;DHT22;10574;52.508;13.236;2022-07-15T03:56:07;12.50;99.90
20827;DHT22;10574;52.508;13.236;2022-07-15T03:58:35;12.50;99.90
20827;DHT22;10574;52.508;13.236;2022-07-15T04:01:03;12.50;99.90
20827;DHT22;10574;52.508;13.236;2022-07-15T04:03:31;12.50;99.90
20827;DHT22;10574;52.508;13.236;2022-07-15T04:06:00;12.50;99.90
20827;DHT22;10574;52.508;13.236;2022-07-15T04:08:27;12.50;99.90
20827;DHT22;10574;52.508;13.236;2022-07-15T04:10:56;12.50;99.90
20827;DHT22;10574;52.508;13.236;2022-07-15T04:13:25;12.50;99.90
20827;DHT22;10574;52.508;13.236;2022-07-15T04:15:53;12.60;99.90
20827;DHT22;10574;52.508;13.236;2022-07-15T04:18:21;12.50;99.90
20827;DHT22;10574;52.508;13.236;2022-07-15T04:20:49;12.60;99.90
20827;DHT22;10574;52.508;13.236;2022-07-15T04:23:16;12.60;99.90
20827;DHT22;10574;52.508;13.236;2022-07-15T04:25:44;12.70;99.90
20827;DHT22;10574;52.508;13.236;2022-07-15T04:28:30;12.70;99.90
20827;DHT22;10574;52.508;13.236;2022-07-15T04:30:58;12.70;99.90
20827;DHT22;10574;52.508;13.236;2022-07-15T04:33:29;12.70;99.90
20827;DHT22;10574;52.508;13.236;2022-07-15T04:35:56;12.70;99.90
20827;DHT22;10574;52.508;13.236;2022-07-15T04:38:23;12.80;99.90
20827;DHT22;10574;52.508;13.236;2022-07-15T04:40:51;13.00;99.90
20827;DHT22;10574;52.508;13.236;2022-07-15T04:43:19;13.00;99.90
20827;DHT22;10574;52.508;13.236;2022-07-15T04:45:47;13.10;99.90
20827;DHT22;10574;52.508;13.236;2022-07-15T04:48:14;13.10;99.90
20827;DHT22;10574;52.508;13.236;2022-07-15T04:51:00;13.10;99.90
20827;DHT22;10574;52.508;13.236;2022-07-15T04:53:28;13.10;99.90
20827;DHT22;10574;52.508;13.236;2022-07-15T04:55:56;13.10;99.90
20827;DHT22;10574;52.508;13.236;2022-07-15T04:58:23;13.20;99.90
20827;DHT22;10574;52.508;13.236;2022-07-15T05:00:51;13.30;99.90
20827;DHT22;10574;52.508;13.236;2022-07-15T05:03:20;13.40;99.90
20827;DHT22;10574;52.508;13.236;2022-07-15T05:05:47;13.40;99.90
20827;DHT22;10574;52.508;13.236;2022-07-15T05:08:16;13.40;99.90
20827;DHT22;10574;52.508;13.236;2022-07-15T05:10:44;13.40;99.90
20827;DHT22;10574;52.508;13.236;2022-07-15T05:13:11;13.70;99.90
20827;DHT22;10574;52.508;13.236;2022-07-15T05:15:39;14.30;99.90
20827;DHT22;10574;52.508;13.236;2022-07-15T05:18:06;15.00;99.90
20827;DHT22;10574;52.508;13.236;2022-07-15T05:20:34;15.40;99.90
20827;DHT22;10574;52.508;13.236;2022-07-15T05:23:02;15.40;99.90
20827;DHT22;10574;52.508;13.236;2022-07-15T05:25:30;15.40;99.90
20827;DHT22;10574;52.508;13.236;2022-07-15T05:27:58;15.70;99.90
20827;DHT22;10574;52.508;13.236;2022-07-15T05:30:29;15.70;99.90
20827;DHT22;10574;52.508;13.236;2022-07-15T05:32:58;15.70;99.90
20827;DHT22;10574;52.508;13.236;2022-07-15T05:35:26;16.10;99.90
20827;DHT22;10574;52.508;13.236;2022-07-15T05:37:54;16.40;99.90
20827;DHT22;10574;52.508;13.236;2022-07-15T05:40:22;16.20;99.90
20827;DHT22;10574;52.508;13.236;2022-07-15T05:42:50;16.30;99.90
20827;DHT22;10574;52.508;13.236;2022-07-15T05:45:18;16.20;99.90
20827;DHT22;10574;52.508;13.236;2022-07-15T05:47:52;16.10;99.90
20827;DHT22;10574;52.508;13.236;2022-07-15T05:50:19;16.30;99.90
20827;DHT22;10574;52.508;13.236;2022-07-15T05:52:48;16.70;99.90
20827;DHT22;10574;52.508;13.236;2022-07-15T05:55:16;16.90;99.90
20827;DHT22;10574;52.508;13.236;2022-07-15T05:57:43;17.00;99.90
20827;DHT22;10574;52.508;13.236;2022-07-15T06:00:12;17.00;99.90
20827;DHT22;10574;52.508;13.236;2022-07-15T06:02:41;17.10;99.90
20827;DHT22;10574;52.508;13.236;2022-07-15T06:05:10;16.90;99.90
20827;DHT22;10574;52.508;13.236;2022-07-15T06:07:38;16.60;99.90
20827;DHT22;10574;52.508;13.236;2022-07-15T06:10:07;16.50;99.90
20827;DHT22;10574;52.508;13.236;2022-07-15T06:12:36;16.40;99.90
20827;DHT22;10574;52.508;13.236;2022-07-15T06:15:05;16.50;99.90
20827;DHT22;10574;52.508;13.236;2022-07-15T06:17:33;16.30;99.90
20827;DHT22;10574;52.508;13.236;2022-07-15T06:20:01;16.30;99.90
20827;DHT22;10574;52.508;13.236;2022-07-15T06:22:29;16.20;99.90
20827;DHT22;10574;52.508;13.236;2022-07-15T06:24:56;16.10;99.90
20827;DHT22;10574;52.508;13.236;2022-07-15T06:27:25;16.10;99.90
20827;DHT22;10574;52.508;13.236;2022-07-15T06:29:53;16.10;99.90
20827;DHT22;10574;52.508;13.236;2022-07-15T06:32:20;16.10;99.90
20827;DHT22;10574;52.508;13.236;2022-07-15T06:34:48;16.10;99.90
20827;DHT22;10574;52.508;13.236;2022-07-15T06:37:16;16.10;99.90
20827;DHT22;10574;52.508;13.236;2022-07-15T06:39:44;16.10;99.90
20827;DHT22;10574;52.508;13.236;2022-07-15T06:42:11;16.10;99.90
20827;DHT22;10574;52.508;13.236;2022-07-15T06:44:39;16.10;99.90
20827;DHT22;10574;52.508;13.236;2022-07-15T06:47:07;16.10;99.90
20827;DHT22;10574;52.508;13.236;2022-07-15T06:49:35;16.10;99.90
20827;DHT22;10574;52.508;13.236;2022-07-15T06:52:03;16.10;99.90
20827;DHT22;10574;52.508;13.236;2022-07-15T06:54:32;16.10;99.90
20827;DHT22;10574;52.508;13.236;2022-07-15T06:57:00;16.10;99.90
20827;DHT22;10574;52.508;13.236;2022-07-15T06:59:31;16.20;99.90
20827;DHT22;10574;52.508;13.236;2022-07-15T07:02:00;16.30;99.90
20827;DHT22;10574;52.508;13.236;2022-07-15T07:04:27;16.40;99.90
20827;DHT22;10574;52.508;13.236;2022-07-15T07:06:55;16.40;99.90
20827;DHT22;10574;52.508;13.236;2022-07-15T07:09:23;16.40;99.90
20827;DHT22;10574;52.508;13.236;2022-07-15T07:11:50;16.40;99.90
20827;DHT22;10574;52.508;13.236;2022-07-15T07:14:19;16.60;99.90
20827;DHT22;10574;52.508;13.236;2022-07-15T07:16:47;16.70;99.90
20827;DHT22;10574;52.508;13.236;2022-07-15T07:19:21;16.80;99.90
20827;DHT22;10574;52.508;13.236;2022-07-15T07:21:48;16.70;99.90
20827;DHT22;10574;52.508;13.236;2022-07-15T07:24:16;16.70;99.90
20827;DHT22;10574;52.508;13.236;2022-07-15T07:26:46;16.70;99.90
20827;DHT22;10574;52.508;13.236;2022-07-15T07:29:15;16.80;99.90
20827;DHT22;10574;52.508;13.236;2022-07-15T07:31:44;17.00;99.90
20827;DHT22;10574;52.508;13.236;2022-07-15T07:34:13;17.10;99.90
20827;DHT22;10574;52.508;13.236;2022-07-15T07:36:41;17.10;99.90
20827;DHT22;10574;52.508;13.236;2022-07-15T07:39:09;17.10;99.90
20827;DHT22;10574;52.508;13.236;2022-07-15T07:41:37;17.30;99.90
20827;DHT22;10574;52.508;13.236;2022-07-15T07:44:05;17.40;99.90
20827;DHT22;10574;52.508;13.236;2022-07-15T07:46:33;17.30;99.90
20827;DHT22;10574;52.508;13.236;2022-07-15T07:49:01;17.50;99.90
20827;DHT22;10574;52.508;13.236;2022-07-15T07:51:29;17.80;99.90
20827;DHT22;10574;52.508;13.236;2022-07-15T07:53:56;17.90;99.90
20827;DHT22;10574;52.508;13.236;2022-07-15T07:56:25;17.90;99.90
20827;DHT22;10574;52.508;13.236;2022-07-15T07:58:53;17.70;99.90
20827;DHT22;10574;52.508;13.236;2022-07-15T08:01:21;17.70;99.90
20827;DHT22;10574;52.508;13.236;2022-07-15T08:03:51;17.70;99.90
20827;DHT22;10574;52.508;13.236;2022-07-15T08:06:18;17.50;99.90
20827;DHT22;10574;52.508;13.236;2022-07-15T08:08:47;17.60;99.90
20827;DHT22;10574;52.508;13.236;2022-07-15T08:11:15;17.60;99.90
20827;DHT22;10574;52.508;13.236;2022-07-15T08:13:45;17.60;99.90
20827;DHT22;10574;52.508;13.236;2022-07-15T08:16:13;17.50;99.90
20827;DHT22;10574;52.508;13.236;2022-07-15T08:18:41;17.60;99.90
20827;DHT22;10574;52.508;13.236;2022-07-15T08:21:11;17.50;99.90
20827;DHT22;10574;52.508;13.236;2022-07-15T08:23:40;17.60;99.90
20827;DHT22;10574;52.508;13.236;2022-07-15T08:26:08;17.70;99.90
20827;DHT22;10574;52.508;13.236;2022-07-15T08:28:37;17.70;99.90
20827;DHT22;10574;52.508;13.236;2022-07-15T08:31:07;17.60;99.90
20827;DHT22;10574;52.508;13.236;2022-07-15T08:33:34;17.50;99.90
20827;DHT22;10574;52.508;13.236;2022-07-15T08:36:03;17.30;99.90
20827;DHT22;10574;52.508;13.236;2022-07-15T08:38:30;17.30;99.90
20827;DHT22;10574;52.508;13.236;2022-07-15T08:40:58;17.30;99.90
20827;DHT22;10574;52.508;13.236;2022-07-15T08:43:26;17.30;99.90
20827;DHT22;10574;52.508;13.236;2022-07-15T08:45:54;17.40;99.90
20827;DHT22;10574;52.508;13.236;2022-07-15T08:48:27;17.40;99.90
20827;DHT22;10574;52.508;13.236;2022-07-15T08:50:58;17.30;99.90
20827;DHT22;10574;52.508;13.236;2022-07-15T08:53:23;17.30;99.90
20827;DHT22;10574;52.508;13.236;2022-07-15T08:55:51;17.40;99.90
20827;DHT22;10574;52.508;13.236;2022-07-15T08:58:19;17.60;99.90
20827;DHT22;10574;52.508;13.236;2022-07-15T09:00:48;17.70;99.90
20827;DHT22;10574;52.508;13.236;2022-07-15T09:03:16;17.80;99.90
20827;DHT22;10574;52.508;13.236;2022-07-15T09:05:43;17.70;99.90
20827;DHT22;10574;52.508;13.236;2022-07-15T09:08:13;17.50;99.90
20827;DHT22;10574;52.508;13.236;2022-07-15T09:10:53;17.50;99.90
20827;DHT22;10574;52.508;13.236;2022-07-15T09:16:10;17.30;99.90
20827;DHT22;10574;52.508;13.236;2022-07-15T09:18:43;17.40;99.90
20827;DHT22;10574;52.508;13.236;2022-07-15T09:21:20;17.50;99.90
20827;DHT22;10574;52.508;13.236;2022-07-15T09:23:50;17.50;99.90
20827;DHT22;10574;52.508;13.236;2022-07-15T09:26:27;17.40;99.90
20827;DHT22;10574;52.508;13.236;2022-07-15T09:28:57;17.40;99.90
20827;DHT22;10574;52.508;13.236;2022-07-15T09:31:33;17.50;99.90
20827;DHT22;10574;52.508;13.236;2022-07-15T09:34:21;17.70;99.90
20827;DHT22;10574;52.508;13.236;2022-07-15T09:36:52;17.80;99.90
20827;DHT22;10574;52.508;13.236;2022-07-15T09:39:21;17.90;99.90
20827;DHT22;10574;52.508;13.236;2022-07-15T09:41:50;18.20;99.90
20827;DHT22;10574;52.508;13.236;2022-07-15T09:44:23;18.40;99.90
20827;DHT22;10574;52.508;13.236;2022-07-15T09:46:57;18.60;99.90
20827;DHT22;10574;52.508;13.236;2022-07-15T09:52:04;17.90;99.90
20827;DHT22;10574;52.508;13.236;2022-07-15T09:54:38;17.70;99.90
20827;DHT22;10574;52.508;13.236;2022-07-15T10:00:12;17.70;99.90
20827;DHT22;10574;52.508;13.236;2022-07-15T10:02:40;17.70;99.90
20827;DHT22;10574;52.508;13.236;2022-07-15T10:05:26;17.90;99.90
20827;DHT22;10574;52.508;13.236;2022-07-15T10:07:56;18.00;99.90
20827;DHT22;10574;52.508;13.236;2022-07-15T10:10:25;18.20;99.90
20827;DHT22;10574;52.508;13.236;2022-07-15T10:21:41;18.40;99.90
20827;DHT22;10574;52.508;13.236;2022-07-15T10:29:40;18.80;99.90
20827;DHT22;10574;52.508;13.236;2022-07-15T10:32:08;18.60;99.90
20827;DHT22;10574;52.508;13.236;2022-07-15T10:34:38;18.60;99.90
20827;DHT22;10574;52.508;13.236;2022-07-15T10:37:08;18.60;99.90
20827;DHT22;10574;52.508;13.236;2022-07-15T10:42:25;18.60;99.90
20827;DHT22;10574;52.508;13.236;2022-07-15T10:47:29;18.90;99.90
20827;DHT22;10574;52.508;13.236;2022-07-15T10:49:57;19.00;99.90
20827;DHT22;10574;52.508;13.236;2022-07-15T10:52:29;19.20;99.90
20827;DHT22;10574;52.508;13.236;2022-07-15T10:55:05;19.60;99.90
20827;DHT22;10574;52.508;13.236;2022-07-15T11:03:07;19.80;99.90
20827;DHT22;10574;52.508;13.236;2022-07-15T11:13:47;19.30;99.90
20827;DHT22;10574;52.508;13.236;2022-07-15T11:16:18;19.20;99.90
20827;DHT22;10574;52.508;13.236;2022-07-15T11:18:47;19.50;99.90
20827;DHT22;10574;52.508;13.236;2022-07-15T11:21:15;20.20;99.90
20827;DHT22;10574;52.508;13.236;2022-07-15T11:23:44;20.20;99.90
20827;DHT22;10574;52.508;13.236;2022-07-15T11:26:13;20.20;99.90
20827;DHT22;10574;52.508;13.236;2022-07-15T11:28:55;20.10;99.90
20827;DHT22;10574;52.508;13.236;2022-07-15T11:31:23;20.00;99.90
20827;DHT22;10574;52.508;13.236;2022-07-15T11:33:55;19.90;99.90
20827;DHT22;10574;52.508;13.236;2022-07-15T11:36:24;20.00;99.90
20827;DHT22;10574;52.508;13.236;2022-07-15T11:38:52;19.80;99.90
20827;DHT22;10574;52.508;13.236;2022-07-15T11:41:20;19.70;99.90
20827;DHT22;10574;52.508;13.236;2022-07-15T11:44:09;19.70;99.90
20827;DHT22;10574;52.508;13.236;2022-07-15T11:47:00;19.70;99.90
20827;DHT22;10574;52.508;13.236;2022-07-15T11:49:36;19.90;99.90
20827;DHT22;10574;52.508;13.236;2022-07-15T11:52:07;20.00;99.90
20827;DHT22;10574;52.508;13.236;2022-07-15T11:54:37;20.20;99.90
20827;DHT22;10574;52.508;13.236;2022-07-15T11:57:10;20.30;99.90
20827;DHT22;10574;52.508;13.236;2022-07-15T11:59:40;20.40;99.90
20827;DHT22;10574;52.508;13.236;2022-07-15T12:02:12;20.40;99.90
20827;DHT22;10574;52.508;13.236;2022-07-15T12:04:41;20.40;99.90
20827;DHT22;10574;52.508;13.236;2022-07-15T12:07:09;20.40;99.90
20827;DHT22;10574;52.508;13.236;2022-07-15T12:09:45;20.50;99.90
20827;DHT22;10574;52.508;13.236;2022-07-15T12:12:14;20.40;99.90
20827;DHT22;10574;52.508;13.236;2022-07-15T12:14:48;20.40;99.90
20827;DHT22;10574;52.508;13.236;2022-07-15T12:17:12;20.60;99.90
20827;DHT22;10574;52.508;13.236;2022-07-15T12:19:40;20.50;99.90
20827;DHT22;10574;52.508;13.236;2022-07-15T12:22:09;20.40;99.90
20827;DHT22;10574;52.508;13.236;2022-07-15T12:24:43;20.30;99.90
20827;DHT22;10574;52.508;13.236;2022-07-15T12:27:12;20.10;99.80
20827;DHT22;10574;52.508;13.236;2022-07-15T12:29:41;20.10;99.90
20827;DHT22;10574;52.508;13.236;2022-07-15T12:32:11;19.90;99.90
20827;DHT22;10574;52.508;13.236;2022-07-15T12:34:54;19.50;99.90
20827;DHT22;10574;52.508;13.236;2022-07-15T12:37:25;19.40;99.90
20827;DHT22;10574;52.508;13.236;2022-07-15T12:40:05;19.20;99.90
20827;DHT22;10574;52.508;13.236;2022-07-15T12:42:41;19.20;99.90
20827;DHT22;10574;52.508;13.236;2022-07-15T12:45:38;19.40;99.90
20827;DHT22;10574;52.508;13.236;2022-07-15T12:48:06;19.70;99.90
20827;DHT22;10574;52.508;13.236;2022-07-15T12:53:20;20.40;99.90
20827;DHT22;10574;52.508;13.236;2022-07-15T12:55:52;20.60;99.90
20827;DHT22;10574;52.508;13.236;2022-07-15T12:58:28;20.40;99.30
20827;DHT22;10574;52.508;13.236;2022-07-15T13:01:07;20.40;99.50
20827;DHT22;10574;52.508;13.236;2022-07-15T13:03:36;20.30;99.50
20827;DHT22;10574;52.508;13.236;2022-07-15T13:06:05;20.00;99.90
20827;DHT22;10574;52.508;13.236;2022-07-15T13:08:36;20.10;99.90
20827;DHT22;10574;52.508;13.236;2022-07-15T13:11:11;20.10;99.90
20827;DHT22;10574;52.508;13.236;2022-07-15T13:13:37;20.20;99.90
20827;DHT22;10574;52.508;13.236;2022-07-15T13:16:06;20.10;99.90
20827;DHT22;10574;52.508;13.236;2022-07-15T13:18:36;19.90;99.90
20827;DHT22;10574;52.508;13.236;2022-07-15T13:21:05;20.00;99.90
20827;DHT22;10574;52.508;13.236;2022-07-15T13:23:33;20.10;99.90
20827;DHT22;10574;52.508;13.236;2022-07-15T13:26:01;20.50;99.90
20827;DHT22;10574;52.508;13.236;2022-07-15T13:28:28;20.80;99.90
20827;DHT22;10574;52.508;13.236;2022-07-15T13:30:56;21.10;99.90
20827;DHT22;10574;52.508;13.236;2022-07-15T13:33:23;21.20;99.90
20827;DHT22;10574;52.508;13.236;2022-07-15T13:35:52;21.20;99.90
20827;DHT22;10574;52.508;13.236;2022-07-15T13:38:21;21.30;99.50
20827;DHT22;10574;52.508;13.236;2022-07-15T13:40:50;21.30;98.40
20827;DHT22;10574;52.508;13.236;2022-07-15T13:43:27;20.90;98.50
20827;DHT22;10574;52.508;13.236;2022-07-15T13:45:56;20.90;98.20
20827;DHT22;10574;52.508;13.236;2022-07-15T13:48:23;20.80;98.90
20827;DHT22;10574;52.508;13.236;2022-07-15T13:50:52;20.80;99.10
20827;DHT22;10574;52.508;13.236;2022-07-15T13:53:38;20.70;98.80
20827;DHT22;10574;52.508;13.236;2022-07-15T13:56:06;20.70;97.70
20827;DHT22;10574;52.508;13.236;2022-07-15T13:58:34;20.50;97.80
20827;DHT22;10574;52.508;13.236;2022-07-15T14:01:02;20.40;98.00
20827;DHT22;10574;52.508;13.236;2022-07-15T14:03:29;20.30;98.80
20827;DHT22;10574;52.508;13.236;2022-07-15T14:05:58;20.40;98.30
20827;DHT22;10574;52.508;13.236;2022-07-15T14:08:25;20.30;98.50
20827;DHT22;10574;52.508;13.236;2022-07-15T14:10:53;20.20;98.80
20827;DHT22;10574;52.508;13.236;2022-07-15T14:13:21;20.10;99.00
20827;DHT22;10574;52.508;13.236;2022-07-15T14:15:49;20.20;99.80
20827;DHT22;10574;52.508;13.236;2022-07-15T14:18:18;20.20;99.40
20827;DHT22;10574;52.508;13.236;2022-07-15T14:20:48;20.40;99.40
20827;DHT22;10574;52.508;13.236;2022-07-15T14:23:18;20.70;99.00
20827;DHT22;10574;52.508;13.236;2022-07-15T14:25:48;20.70;99.20
20827;DHT22;10574;52.508;13.236;2022-07-15T14:28:15;20.60;98.30
20827;DHT22;10574;52.508;13.236;2022-07-15T14:30:45;20.40;98.60
20827;DHT22;10574;52.508;13.236;2022-07-15T14:33:12;20.50;99.40
20827;DHT22;10574;52.508;13.236;2022-07-15T14:35:41;20.60;99.10
20827;DHT22;10574;52.508;13.236;2022-07-15T14:38:09;20.70;99.30
20827;DHT22;10574;52.508;13.236;2022-07-15T14:40:37;21.00;98.50
20827;DHT22;10574;52.508;13.236;2022-07-15T14:43:07;21.10;98.30
20827;DHT22;10574;52.508;13.236;2022-07-15T14:45:34;21.20;98.40
20827;DHT22;10574;52.508;13.236;2022-07-15T14:48:03;21.30;97.00
20827;DHT22;10574;52.508;13.236;2022-07-15T14:50:34;21.30;97.00
20827;DHT22;10574;52.508;13.236;2022-07-15T14:53:03;21.20;96.50
20827;DHT22;10574;52.508;13.236;2022-07-15T14:55:32;21.00;96.40
20827;DHT22;10574;52.508;13.236;2022-07-15T14:58:00;20.80;96.60
20827;DHT22;10574;52.508;13.236;2022-07-15T15:00:33;20.70;96.90
20827;DHT22;10574;52.508;13.236;2022-07-15T15:03:01;20.70;97.20
20827;DHT22;10574;52.508;13.236;2022-07-15T15:05:29;20.80;97.20
20827;DHT22;10574;52.508;13.236;2022-07-15T15:07:57;20.90;96.90
20827;DHT22;10574;52.508;13.236;2022-07-15T15:10:25;20.90;96.60
20827;DHT22;10574;52.508;13.236;2022-07-15T15:12:53;20.90;96.20
20827;DHT22;10574;52.508;13.236;2022-07-15T15:15:22;21.00;96.80
20827;DHT22;10574;52.508;13.236;2022-07-15T15:17:50;21.00;95.80
20827;DHT22;10574;52.508;13.236;2022-07-15T15:20:19;20.70;95.40
20827;DHT22;10574;52.508;13.236;2022-07-15T15:22:46;20.60;95.90
20827;DHT22;10574;52.508;13.236;2022-07-15T15:25:14;20.60;96.40
20827;DHT22;10574;52.508;13.236;2022-07-15T15:27:44;20.50;96.10
20827;DHT22;10574;52.508;13.236;2022-07-15T15:30:13;20.60;95.90
20827;DHT22;10574;52.508;13.236;2022-07-15T15:32:41;20.80;96.20
20827;DHT22;10574;52.508;13.236;2022-07-15T15:35:09;21.00;95.70
20827;DHT22;10574;52.508;13.236;2022-07-15T15:37:39;21.10;95.10
20827;DHT22;10574;52.508;13.236;2022-07-15T15:40:07;20.90;95.20
20827;DHT22;10574;52.508;13.236;2022-07-15T15:42:36;20.90;95.40
20827;DHT22;10574;52.508;13.236;2022-07-15T15:45:05;20.80;95.20
20827;DHT22;10574;52.508;13.236;2022-07-15T15:47:33;20.80;95.80
20827;DHT22;10574;52.508;13.236;2022-07-15T15:50:01;20.80;95.90
20827;DHT22;10574;52.508;13.236;2022-07-15T15:52:29;20.80;96.10
20827;DHT22;10574;52.508;13.236;2022-07-15T15:54:57;20.90;95.50
20827;DHT22;10574;52.508;13.236;2022-07-15T15:57:25;20.90;95.50
20827;DHT22;10574;52.508;13.236;2022-07-15T15:59:53;20.90;95.50
20827;DHT22;10574;52.508;13.236;2022-07-15T16:02:21;20.80;95.30
20827;DHT22;10574;52.508;13.236;2022-07-15T16:04:49;20.80;95.90
20827;DHT22;10574;52.508;13.236;2022-07-15T16:07:17;20.70;95.70
20827;DHT22;10574;52.508;13.236;2022-07-15T16:09:44;20.70;96.00
20827;DHT22;10574;52.508;13.236;2022-07-15T16:12:13;20.60;96.10